createdAt,value
2022-08-31T00:00:17.157Z,29.740
2022-08-31T00:05:17.180Z,29.741
2022-08-31T00:10:20.293Z,29.742
2022-08-31T00:15:17.213Z,29.747
2022-08-31T00:20:32.764Z,29.747
2022-08-31T00:25:20.115Z,29.747
2022-08-31T00:30:20.147Z,29.748
2022-08-31T00:35:20.149Z,29.749
2022-08-31T00:40:17.253Z,29.748
2022-08-31T00:45:20.353Z,29.748
2022-08-31T00:50:20.213Z,29.748
2022-08-31T00:55:20.175Z,29.745
2022-08-31T01:00:20.196Z,29.745
2022-08-31T01:05:20.197Z,29.744
2022-08-31T01:10:20.258Z,29.742
2022-08-31T01:15:20.147Z,29.742
2022-08-31T01:20:20.195Z,29.742
2022-08-31T01:25:17.187Z,29.742
2022-08-31T01:30:17.233Z,29.740
2022-08-31T01:35:20.196Z,29.741
2022-08-31T01:40:20.332Z,29.740
2022-08-31T01:45:20.189Z,29.739
2022-08-31T01:50:20.251Z,29.738
2022-08-31T01:55:17.363Z,29.740
2022-08-31T02:00:17.203Z,29.738
2022-08-31T02:05:20.204Z,29.737
2022-08-31T02:10:17.211Z,29.736
2022-08-31T02:15:20.247Z,29.735
2022-08-31T02:20:20.310Z,29.732
2022-08-31T02:25:20.221Z,29.731
2022-08-31T02:30:20.159Z,29.732
2022-08-31T02:35:20.210Z,29.729
2022-08-31T02:40:20.291Z,29.730
2022-08-31T02:45:20.246Z,29.728
2022-08-31T02:50:20.218Z,29.730
2022-08-31T02:55:20.175Z,29.727
2022-08-31T03:00:17.278Z,29.726
2022-08-31T03:05:17.280Z,29.725
2022-08-31T03:10:20.304Z,29.723
2022-08-31T03:15:20.226Z,29.724
2022-08-31T03:20:17.246Z,29.722
2022-08-31T03:25:17.249Z,29.717
2022-08-31T03:30:17.227Z,29.717
2022-08-31T03:35:20.435Z,29.716
2022-08-31T03:40:20.374Z,29.717
2022-08-31T03:45:20.289Z,29.717
2022-08-31T03:50:20.245Z,29.717
2022-08-31T03:55:17.288Z,29.715
2022-08-31T04:00:19.491Z,29.714
2022-08-31T04:05:16.563Z,29.715
2022-08-31T04:10:19.657Z,29.713
2022-08-31T04:15:19.483Z,29.714
2022-08-31T04:20:19.524Z,29.717
2022-08-31T04:25:16.534Z,29.720
2022-08-31T04:30:19.620Z,29.718
2022-08-31T04:35:16.552Z,29.714
2022-08-31T04:40:19.710Z,29.713
2022-08-31T04:45:16.627Z,29.714
2022-08-31T04:50:19.522Z,29.713
2022-08-31T04:55:19.502Z,29.713
2022-08-31T05:00:19.522Z,29.709
2022-08-31T05:05:19.540Z,29.704
2022-08-31T05:10:16.567Z,29.703
2022-08-31T05:15:19.747Z,29.702
2022-08-31T05:20:19.538Z,29.699
2022-08-31T05:25:16.573Z,29.699
2022-08-31T05:30:16.592Z,29.696
2022-08-31T05:35:19.608Z,29.695
2022-08-31T05:40:19.566Z,29.695
2022-08-31T05:45:16.571Z,29.694
2022-08-31T05:50:19.717Z,29.694
2022-08-31T05:55:19.529Z,29.690
2022-08-31T06:00:19.516Z,29.689
2022-08-31T06:05:19.569Z,29.687
2022-08-31T06:10:19.560Z,29.686
2022-08-31T06:15:19.571Z,29.684
2022-08-31T06:20:17.885Z,29.683
2022-08-31T06:25:19.749Z,29.684
2022-08-31T06:30:19.634Z,29.683
2022-08-31T06:35:19.575Z,29.678
2022-08-31T06:40:16.577Z,29.674
2022-08-31T06:45:19.622Z,29.672
2022-08-31T06:50:16.595Z,29.670
2022-08-31T06:55:19.560Z,29.672
2022-08-31T07:00:19.732Z,29.669
2022-08-31T07:05:19.830Z,29.669
2022-08-31T07:10:19.608Z,29.668
2022-08-31T07:15:19.570Z,29.663
2022-08-31T07:20:16.385Z,29.661
2022-08-31T07:25:16.571Z,29.660
2022-08-31T07:30:16.612Z,29.657
2022-08-31T07:35:16.701Z,29.657
2022-08-31T07:40:19.772Z,29.657
2022-08-31T07:45:16.621Z,29.655
2022-08-31T07:50:19.627Z,29.656
2022-08-31T07:55:19.601Z,29.656
2022-08-31T08:00:16.606Z,29.654
2022-08-31T08:05:16.631Z,29.655
2022-08-31T08:10:19.792Z,29.658
2022-08-31T08:15:19.582Z,29.659
2022-08-31T08:20:21.783Z,29.661
2022-08-31T08:25:16.773Z,29.664
2022-08-31T08:30:16.613Z,29.660
2022-08-31T08:35:19.705Z,29.657
2022-08-31T08:40:19.688Z,29.655
2022-08-31T08:45:16.860Z,29.659
2022-08-31T08:50:19.735Z,29.660
2022-08-31T08:55:19.599Z,29.660
2022-08-31T09:00:16.640Z,29.658
2022-08-31T09:05:19.671Z,29.657
2022-08-31T09:10:19.724Z,29.654
2022-08-31T09:15:16.708Z,29.656
2022-08-31T09:20:16.738Z,29.662
2022-08-31T09:25:16.695Z,29.664
2022-08-31T09:30:19.641Z,29.667
2022-08-31T09:35:19.613Z,29.663
2022-08-31T09:40:16.739Z,29.650
2022-08-31T09:45:16.663Z,29.660
2022-08-31T09:50:19.781Z,29.660
2022-08-31T09:55:16.609Z,29.664
2022-08-31T10:00:19.636Z,29.675
2022-08-31T10:05:16.749Z,29.678
2022-08-31T10:10:30.242Z,29.677
2022-08-31T10:15:19.646Z,29.679
2022-08-31T10:20:16.677Z,29.684
2022-08-31T10:25:16.754Z,29.680
2022-08-31T10:30:19.688Z,29.675
2022-08-31T10:35:16.572Z,29.670
2022-08-31T10:40:16.749Z,29.666
2022-08-31T10:45:19.762Z,29.664
2022-08-31T10:50:19.689Z,29.678
2022-08-31T10:55:19.809Z,29.689
2022-08-31T11:00:19.673Z,29.686
2022-08-31T11:05:16.761Z,29.673
2022-08-31T11:10:19.687Z,29.677
2022-08-31T11:15:16.710Z,29.683
2022-08-31T11:20:19.678Z,29.683
2022-08-31T11:25:19.670Z,29.686
2022-08-31T11:30:19.884Z,29.685
2022-08-31T11:35:19.677Z,29.683
2022-08-31T11:40:19.674Z,29.685
2022-08-31T11:45:19.708Z,29.688
2022-08-31T11:50:19.676Z,29.690
2022-08-31T11:55:16.734Z,29.687
2022-08-31T12:00:16.732Z,29.690
2022-08-31T12:05:20.006Z,29.693
2022-08-31T12:10:16.777Z,29.694
2022-08-31T12:15:19.704Z,29.694
2022-08-31T12:20:16.789Z,29.693
2022-08-31T12:25:19.709Z,29.693
2022-08-31T12:30:19.697Z,29.694
2022-08-31T12:35:19.679Z,29.692
2022-08-31T12:40:16.929Z,29.690
2022-08-31T12:45:16.721Z,29.692
2022-08-31T12:50:19.919Z,29.695
2022-08-31T12:55:16.888Z,29.694
2022-08-31T13:00:19.738Z,29.694
2022-08-31T13:05:19.705Z,29.692
2022-08-31T13:10:19.943Z,29.690
2022-08-31T13:15:16.775Z,29.690
2022-08-31T13:20:16.725Z,29.688
2022-08-31T13:25:19.745Z,29.686
2022-08-31T13:30:19.803Z,29.685
2022-08-31T13:35:19.707Z,29.683
2022-08-31T13:40:19.774Z,29.682
2022-08-31T13:45:19.838Z,29.681
2022-08-31T13:50:21.652Z,29.685
2022-08-31T13:55:16.768Z,29.684
2022-08-31T14:00:19.733Z,29.682
2022-08-31T14:05:19.784Z,29.680
2022-08-31T14:10:16.760Z,29.679
2022-08-31T14:15:16.743Z,29.680
2022-08-31T14:20:19.973Z,29.678
2022-08-31T14:25:19.731Z,29.678
2022-08-31T14:30:16.666Z,29.677
2022-08-31T14:35:19.775Z,29.676
2022-08-31T14:40:19.798Z,29.674
2022-08-31T14:45:20.562Z,29.671
2022-08-31T14:50:16.754Z,29.670
2022-08-31T14:55:16.987Z,29.668
2022-08-31T15:00:19.751Z,29.666
2022-08-31T15:05:19.763Z,29.665
2022-08-31T15:10:16.799Z,29.664
2022-08-31T15:15:16.774Z,29.664
2022-08-31T15:20:16.905Z,29.663
2022-08-31T15:25:19.974Z,29.660
2022-08-31T15:30:20.163Z,29.661
2022-08-31T15:35:16.844Z,29.664
2022-08-31T15:40:19.842Z,29.663
2022-08-31T15:45:16.769Z,29.662
2022-08-31T15:50:16.825Z,29.662
2022-08-31T15:55:19.772Z,29.664
2022-08-31T16:00:19.978Z,29.664
2022-08-31T16:05:19.783Z,29.665
2022-08-31T16:10:20.515Z,29.660
2022-08-31T16:15:23.383Z,29.657
2022-08-31T16:20:19.825Z,29.656
2022-08-31T16:25:20.422Z,29.653
2022-08-31T16:30:16.823Z,29.650
2022-08-31T16:35:19.985Z,29.650
2022-08-31T16:40:19.898Z,29.648
2022-08-31T16:45:19.854Z,29.646
2022-08-31T16:50:19.933Z,29.644
2022-08-31T16:55:19.811Z,29.642
2022-08-31T17:00:19.845Z,29.644
2022-08-31T17:05:19.775Z,29.641
2022-08-31T17:10:19.905Z,29.642
2022-08-31T17:15:19.799Z,29.643
2022-08-31T17:20:19.793Z,29.642
2022-08-31T17:25:16.844Z,29.642
2022-08-31T17:30:16.830Z,29.642
2022-08-31T17:35:16.844Z,29.641
2022-08-31T17:40:19.886Z,29.639
2022-08-31T17:45:19.928Z,29.638
2022-08-31T17:50:20.007Z,29.637
2022-08-31T17:55:16.882Z,29.640
2022-08-31T18:00:19.839Z,29.639
2022-08-31T18:05:19.805Z,29.639
2022-08-31T18:10:19.799Z,29.638
2022-08-31T18:15:16.863Z,29.639
2022-08-31T18:20:20.082Z,29.639
2022-08-31T18:25:19.839Z,29.639
2022-08-31T18:30:19.806Z,29.638
2022-08-31T18:35:19.882Z,29.641
2022-08-31T18:40:16.922Z,29.641
2022-08-31T18:45:20.081Z,29.643
2022-08-31T18:50:19.885Z,29.642
2022-08-31T18:55:19.949Z,29.645
2022-08-31T19:00:19.865Z,29.645
2022-08-31T19:05:17.401Z,29.646
2022-08-31T19:10:19.872Z,29.646
2022-08-31T19:15:19.838Z,29.647
2022-08-31T19:20:19.913Z,29.643
2022-08-31T19:25:19.856Z,29.644
2022-08-31T19:30:22.299Z,29.645
2022-08-31T19:35:19.868Z,29.648
2022-08-31T19:40:17.709Z,29.648
2022-08-31T19:45:24.551Z,29.653
2022-08-31T19:50:19.992Z,29.651
2022-08-31T19:55:19.885Z,29.651
2022-08-31T20:00:19.859Z,29.651
2022-08-31T20:05:20.074Z,29.650
2022-08-31T20:10:19.851Z,29.651
2022-08-31T20:15:19.882Z,29.654
2022-08-31T20:20:19.865Z,29.653
2022-08-31T20:25:19.097Z,29.652
2022-08-31T20:30:16.925Z,29.654
2022-08-31T20:35:19.880Z,29.652
2022-08-31T20:40:17.380Z,29.651
2022-08-31T20:45:16.914Z,29.654
2022-08-31T20:50:19.953Z,29.652
2022-08-31T20:55:19.875Z,29.657
2022-08-31T21:00:19.924Z,29.659
2022-08-31T21:05:38.243Z,29.660
2022-08-31T21:10:26.094Z,29.668
2022-08-31T21:15:19.925Z,29.663
2022-08-31T21:20:19.924Z,29.668
2022-08-31T21:25:19.906Z,29.672
2022-08-31T21:30:16.930Z,29.672
2022-08-31T21:35:19.934Z,29.671
2022-08-31T21:40:20.006Z,29.674
2022-08-31T21:45:19.990Z,29.675
2022-08-31T21:50:19.904Z,29.674
2022-08-31T21:55:16.937Z,29.676
2022-08-31T22:00:22.150Z,29.675
2022-08-31T22:05:16.928Z,29.681
2022-08-31T22:10:19.967Z,29.681
2022-08-31T22:15:19.954Z,29.683
2022-08-31T22:20:20.139Z,29.687
2022-08-31T22:25:19.919Z,29.689
2022-08-31T22:30:19.931Z,29.689
2022-08-31T22:35:16.989Z,29.689
2022-08-31T22:40:20.076Z,29.691
2022-08-31T22:45:19.964Z,29.692
2022-08-31T22:50:19.950Z,29.695
2022-08-31T22:55:20.006Z,29.703
2022-08-31T23:00:16.978Z,29.703
2022-08-31T23:05:20.022Z,29.704
2022-08-31T23:10:16.963Z,29.704
2022-08-31T23:15:16.999Z,29.705
2022-08-31T23:20:19.989Z,29.705
2022-08-31T23:25:19.995Z,29.708
2022-08-31T23:30:17.058Z,29.709
2022-08-31T23:35:19.983Z,29.712
2022-08-31T23:40:20.022Z,29.715
2022-08-31T23:45:17.009Z,29.720
2022-08-31T23:50:17.058Z,29.720
2022-08-31T23:55:17.009Z,29.723
